createdAt,value
2024-03-03T00:00:50.433Z,97639.95
2024-03-03T00:03:39.050Z,97638.66
2024-03-03T00:06:10.566Z,97634.67
2024-03-03T00:08:38.982Z,97636.78
2024-03-03T00:11:07.598Z,97636.86
2024-03-03T00:13:36.176Z,97639.30
2024-03-03T00:16:07.786Z,97642.29
2024-03-03T00:18:40.387Z,97644.71
2024-03-03T00:21:15.950Z,97644.10
2024-03-03T00:23:44.809Z,97644.14
2024-03-03T00:26:13.774Z,97643.94
2024-03-03T00:28:42.142Z,97645.44
2024-03-03T00:31:11.088Z,97642.86
2024-03-03T00:33:39.746Z,97645.85
2024-03-03T00:36:09.698Z,97646.92
2024-03-03T00:38:38.665Z,97650.15
2024-03-03T00:41:07.818Z,97653.15
2024-03-03T00:43:36.913Z,97653.57
2024-03-03T00:46:06.685Z,97654.86
2024-03-03T00:48:35.403Z,97651.48
2024-03-03T00:51:04.277Z,97649.52
2024-03-03T00:53:32.580Z,97645.48
2024-03-03T00:56:00.936Z,97643.77
2024-03-03T00:58:29.710Z,97637.48
2024-03-03T01:00:58.134Z,97638.29
2024-03-03T01:03:28.036Z,97639.98
2024-03-03T01:05:56.518Z,97641.02
2024-03-03T01:08:24.878Z,97643.08
2024-03-03T01:10:54.310Z,97641.13
2024-03-03T01:13:22.940Z,97641.15
2024-03-03T01:15:51.422Z,97647.12
2024-03-03T01:18:19.939Z,97643.92
2024-03-03T01:20:48.720Z,97645.37
2024-03-03T01:23:17.501Z,97643.42
2024-03-03T01:25:47.437Z,97642.13
2024-03-03T01:28:16.103Z,97639.55
2024-03-03T01:30:44.964Z,97636.76
2024-03-03T01:33:13.395Z,97642.39
2024-03-03T01:35:41.893Z,97642.57
2024-03-03T01:38:10.373Z,97640.92
2024-03-03T01:40:38.963Z,97640.77
2024-03-03T01:43:09.051Z,97638.08
2024-03-03T01:45:37.696Z,97636.54
2024-03-03T01:48:07.466Z,97636.98
2024-03-03T01:50:37.906Z,97637.75
2024-03-03T01:53:07.832Z,97636.33
2024-03-03T01:55:36.755Z,97634.80
2024-03-03T01:58:06.997Z,97634.73
2024-03-03T02:00:37.018Z,97634.90
2024-03-03T02:03:07.938Z,97633.73
2024-03-03T02:05:38.400Z,97633.96
2024-03-03T02:08:08.085Z,97630.48
2024-03-03T02:10:38.025Z,97635.41
2024-03-03T02:13:06.764Z,97635.79
2024-03-03T02:15:35.539Z,97636.02
2024-03-03T02:18:04.273Z,97634.77
2024-03-03T02:20:33.226Z,97633.60
2024-03-03T02:23:01.870Z,97633.95
2024-03-03T02:25:30.417Z,97636.59
2024-03-03T02:27:58.977Z,97636.27
2024-03-03T02:30:27.642Z,97634.41
2024-03-03T02:32:56.170Z,97635.38
2024-03-03T02:35:24.835Z,97631.84
2024-03-03T02:37:53.217Z,97629.34
2024-03-03T02:40:21.851Z,97630.95
2024-03-03T02:42:50.419Z,97626.61
2024-03-03T02:45:19.267Z,97623.55
2024-03-03T02:47:49.551Z,97620.77
2024-03-03T02:50:18.358Z,97618.02
2024-03-03T02:52:46.856Z,97619.16
2024-03-03T02:55:15.536Z,97617.40
2024-03-03T02:57:44.008Z,97612.48
2024-03-03T03:00:13.136Z,97610.59
2024-03-03T03:02:41.806Z,97612.23
2024-03-03T03:05:10.680Z,97610.65
2024-03-03T03:07:39.035Z,97610.98
2024-03-03T03:10:08.937Z,97617.66
2024-03-03T03:12:37.516Z,97619.79
2024-03-03T03:15:07.302Z,97623.05
2024-03-03T03:17:35.721Z,97625.48
2024-03-03T03:20:05.890Z,97623.91
2024-03-03T03:22:34.391Z,97629.55
2024-03-03T03:25:02.935Z,97633.04
2024-03-03T03:27:32.468Z,97637.10
2024-03-03T03:30:00.725Z,97636.69
2024-03-03T03:32:29.353Z,97634.46
2024-03-03T03:34:57.806Z,97633.11
2024-03-03T03:37:26.176Z,97635.29
2024-03-03T03:39:54.686Z,97636.14
2024-03-03T03:42:23.165Z,97635.40
2024-03-03T03:44:51.462Z,97636.03
2024-03-03T03:47:19.800Z,97634.75
2024-03-03T03:49:48.333Z,97634.91
2024-03-03T03:52:16.730Z,97636.95
2024-03-03T03:54:45.224Z,97637.16
2024-03-03T03:57:14.010Z,97638.58
2024-03-03T03:59:43.124Z,97633.67
2024-03-03T04:02:11.469Z,97634.52
2024-03-03T04:04:39.642Z,97636.56
2024-03-03T04:07:08.684Z,97633.02
2024-03-03T04:09:37.310Z,97636.50
2024-03-03T04:12:06.501Z,97634.41
2024-03-03T04:14:35.145Z,97639.36
2024-03-03T04:17:03.526Z,97639.99
2024-03-03T04:19:32.191Z,97641.91
2024-03-03T04:22:00.750Z,97636.79
2024-03-03T04:24:29.354Z,97636.69
2024-03-03T04:26:57.702Z,97633.63
2024-03-03T04:29:26.986Z,97633.42
2024-03-03T04:31:55.597Z,97639.04
2024-03-03T04:34:27.526Z,97639.40
2024-03-03T04:36:56.582Z,97644.58
2024-03-03T04:39:26.822Z,97641.57
2024-03-03T04:41:55.664Z,97645.76
2024-03-03T04:44:24.108Z,97645.08
2024-03-03T04:46:52.861Z,97648.46
2024-03-03T04:49:21.532Z,97651.49
2024-03-03T04:51:50.598Z,97651.71
2024-03-03T04:54:19.140Z,97651.45
2024-03-03T04:56:47.444Z,97650.19
2024-03-03T04:59:15.959Z,97649.33
2024-03-03T05:01:44.415Z,97650.73
2024-03-03T05:04:15.100Z,97654.13
2024-03-03T05:06:46.149Z,97653.52
2024-03-03T05:09:14.660Z,97655.34
2024-03-03T05:11:44.908Z,97657.17
2024-03-03T05:14:13.531Z,97658.64
2024-03-03T05:16:42.444Z,97659.36
2024-03-03T05:19:10.997Z,97659.58
2024-03-03T05:21:40.344Z,97659.55
2024-03-03T05:24:08.904Z,97660.37
2024-03-03T05:26:37.296Z,97664.39
2024-03-03T05:29:06.893Z,97662.11
2024-03-03T05:31:42.725Z,97661.20
2024-03-03T05:34:15.037Z,97664.29
2024-03-03T05:36:44.610Z,97664.11
2024-03-03T05:39:14.189Z,97668.45
2024-03-03T05:41:43.756Z,97665.64
2024-03-03T05:44:12.283Z,97668.65
2024-03-03T05:46:40.724Z,97671.02
2024-03-03T05:49:09.076Z,97670.73
2024-03-03T05:51:37.772Z,97674.85
2024-03-03T05:54:07.521Z,97675.36
2024-03-03T05:56:38.622Z,97681.20
2024-03-03T05:59:07.817Z,97683.13
2024-03-03T06:01:36.490Z,97684.12
2024-03-03T06:04:05.223Z,97684.63
2024-03-03T06:06:33.705Z,97680.92
2024-03-03T06:09:02.324Z,97680.03
2024-03-03T06:11:31.092Z,97679.63
2024-03-03T06:13:59.689Z,97683.41
2024-03-03T06:16:28.338Z,97682.47
2024-03-03T06:18:56.829Z,97680.39
2024-03-03T06:21:25.386Z,97675.30
2024-03-03T06:23:54.183Z,97676.58
2024-03-03T06:26:22.859Z,97675.38
2024-03-03T06:28:51.253Z,97678.34
2024-03-03T06:31:19.781Z,97677.71
2024-03-03T06:33:48.435Z,97674.23
2024-03-03T06:36:21.068Z,97673.75
2024-03-03T06:38:51.392Z,97677.11
2024-03-03T06:41:20.654Z,97679.41
2024-03-03T06:43:49.014Z,97684.91
2024-03-03T06:46:17.846Z,97685.50
2024-03-03T06:48:46.387Z,97687.86
2024-03-03T06:51:15.516Z,97688.98
2024-03-03T06:53:44.099Z,97686.66
2024-03-03T06:56:16.968Z,97687.09
2024-03-03T06:58:47.282Z,97685.92
2024-03-03T07:01:15.921Z,97688.67
2024-03-03T07:03:59.962Z,97688.09
2024-03-03T07:06:28.422Z,97691.98
2024-03-03T07:08:57.210Z,97689.70
2024-03-03T07:11:26.137Z,97689.29
2024-03-03T07:13:54.848Z,97686.42
2024-03-03T07:16:23.171Z,97688.61
2024-03-03T07:18:51.653Z,97681.66
2024-03-03T07:21:20.121Z,97683.30
2024-03-03T07:23:48.666Z,97685.47
2024-03-03T07:26:17.083Z,97685.16
2024-03-03T07:28:45.647Z,97682.16
2024-03-03T07:31:14.057Z,97682.73
2024-03-03T07:33:42.650Z,97680.22
2024-03-03T07:36:11.118Z,97676.80
2024-03-03T07:38:40.026Z,97678.27
2024-03-03T07:41:08.397Z,97682.94
2024-03-03T07:43:37.008Z,97685.55
2024-03-03T07:46:05.964Z,97686.74
2024-03-03T07:48:35.217Z,97690.98
2024-03-03T07:51:05.153Z,97693.41
2024-03-03T07:53:34.304Z,97694.46
2024-03-03T07:56:03.022Z,97695.44
2024-03-03T07:58:38.115Z,97695.95
2024-03-03T08:01:07.174Z,97697.81
2024-03-03T08:03:35.739Z,97700.33
2024-03-03T08:06:04.697Z,97700.29
2024-03-03T08:08:33.187Z,97696.61
2024-03-03T08:11:01.455Z,97699.78
2024-03-03T08:13:30.037Z,97699.46
2024-03-03T08:15:58.512Z,97701.46
2024-03-03T08:18:27.007Z,97700.09
2024-03-03T08:20:55.456Z,97700.26
2024-03-03T08:23:24.010Z,97698.26
2024-03-03T08:25:53.197Z,97697.05
2024-03-03T08:28:21.604Z,97694.38
2024-03-03T08:30:50.353Z,97695.09
2024-03-03T08:33:18.813Z,97700.35
2024-03-03T08:35:47.489Z,97696.16
2024-03-03T08:38:15.954Z,97692.40
2024-03-03T08:40:44.698Z,97695.91
2024-03-03T08:43:13.372Z,97690.33
2024-03-03T08:45:41.834Z,97690.69
2024-03-03T08:48:10.455Z,97697.31
2024-03-03T08:50:38.820Z,97694.70
2024-03-03T08:53:07.307Z,97693.25
2024-03-03T08:55:35.892Z,97697.27
2024-03-03T08:58:05.240Z,97697.48
2024-03-03T09:00:34.635Z,97693.66
2024-03-03T09:03:03.161Z,97691.19
2024-03-03T09:05:31.546Z,97690.45
2024-03-03T09:08:00.174Z,97689.91
2024-03-03T09:10:28.618Z,97691.81
2024-03-03T09:12:57.257Z,97689.90
2024-03-03T09:15:25.766Z,97691.41
2024-03-03T09:17:54.246Z,97690.84
2024-03-03T09:20:23.052Z,97691.66
2024-03-03T09:22:51.556Z,97689.72
2024-03-03T09:25:20.436Z,97689.60
2024-03-03T09:27:49.602Z,97689.17
2024-03-03T09:30:18.346Z,97685.13
2024-03-03T09:32:51.640Z,97684.52
2024-03-03T09:35:20.785Z,97682.61
2024-03-03T09:37:50.582Z,97685.46
2024-03-03T09:40:19.247Z,97684.63
2024-03-03T09:42:48.047Z,97683.48
2024-03-03T09:45:21.282Z,97680.92
2024-03-03T09:47:50.576Z,97681.11
2024-03-03T09:50:21.070Z,97680.89
2024-03-03T09:52:53.826Z,97681.08
2024-03-03T09:55:24.582Z,97676.20
2024-03-03T09:57:53.754Z,97678.27
2024-03-03T10:00:23.885Z,97672.37
2024-03-03T10:02:54.779Z,97672.10
2024-03-03T10:05:26.790Z,97672.66
2024-03-03T10:08:03.283Z,97672.58
2024-03-03T10:10:32.622Z,97670.83
2024-03-03T10:13:04.555Z,97670.77
2024-03-03T10:15:34.683Z,97668.90
2024-03-03T10:18:04.423Z,97666.95
2024-03-03T10:20:33.675Z,97659.11
2024-03-03T10:23:02.071Z,97659.79
2024-03-03T10:25:32.054Z,97661.17
2024-03-03T10:28:16.328Z,97659.64
2024-03-03T10:30:44.991Z,97655.29
2024-03-03T10:33:13.812Z,97652.46
2024-03-03T10:35:42.641Z,97653.49
2024-03-03T10:38:12.420Z,97650.52
2024-03-03T10:40:44.184Z,97645.35
2024-03-03T10:43:12.830Z,97641.66
2024-03-03T10:45:41.994Z,97638.17
2024-03-03T10:48:11.432Z,97632.88
2024-03-03T10:50:39.918Z,97631.66
2024-03-03T10:53:13.307Z,97632.01
2024-03-03T10:55:43.137Z,97629.07
2024-03-03T10:58:11.944Z,97624.45
2024-03-03T11:00:41.260Z,97618.42
2024-03-03T11:03:12.770Z,97616.70
2024-03-03T11:05:45.699Z,97614.86
2024-03-03T11:08:15.396Z,97611.41
2024-03-03T11:10:44.126Z,97611.42
2024-03-03T11:13:15.446Z,97608.95
2024-03-03T11:15:48.858Z,97607.16
2024-03-03T11:18:22.157Z,97607.34
2024-03-03T11:20:55.419Z,97606.52
2024-03-03T11:23:49.082Z,97603.80
2024-03-03T11:26:27.711Z,97598.65
2024-03-03T11:28:59.991Z,97598.33
2024-03-03T11:31:30.612Z,97593.41
2024-03-03T11:34:00.596Z,97591.92
2024-03-03T11:36:29.733Z,97593.13
2024-03-03T11:39:10.749Z,97590.50
2024-03-03T11:41:40.832Z,97584.63
2024-03-03T11:44:37.683Z,97582.96
2024-03-03T11:47:06.966Z,97581.82
2024-03-03T11:49:43.409Z,97581.85
2024-03-03T11:52:12.440Z,97578.80
2024-03-03T11:54:43.174Z,97580.27
2024-03-03T11:57:19.615Z,97578.09
2024-03-03T11:59:48.634Z,97578.17
2024-03-03T12:02:18.173Z,97572.84
2024-03-03T12:04:49.909Z,97572.90
2024-03-03T12:07:21.737Z,97573.62
2024-03-03T12:09:50.567Z,97567.23
2024-03-03T12:12:20.264Z,97564.27
2024-03-03T12:14:49.131Z,97561.48
2024-03-03T12:17:18.202Z,97560.96
2024-03-03T12:19:48.158Z,97559.83
2024-03-03T12:22:16.787Z,97556.99
2024-03-03T12:24:56.136Z,97555.28
2024-03-03T12:27:24.760Z,97554.38
2024-03-03T12:30:06.641Z,97554.71
2024-03-03T12:32:35.773Z,97549.45
2024-03-03T12:35:04.699Z,97551.31
2024-03-03T12:37:33.395Z,97549.86
2024-03-03T12:40:02.414Z,97545.50
2024-03-03T12:42:30.892Z,97544.81
2024-03-03T12:45:01.131Z,97544.85
2024-03-03T12:47:29.628Z,97539.46
2024-03-03T12:49:58.500Z,97541.58
2024-03-03T12:52:29.281Z,97534.77
2024-03-03T12:54:58.881Z,97537.56
2024-03-03T12:57:29.261Z,97535.55
2024-03-03T12:59:59.041Z,97531.91
2024-03-03T13:02:29.086Z,97531.87
2024-03-03T13:04:59.336Z,97528.06
2024-03-03T13:07:28.584Z,97528.51
2024-03-03T13:09:57.167Z,97524.64
2024-03-03T13:12:26.447Z,97523.70
2024-03-03T13:14:55.987Z,97520.08
2024-03-03T13:17:24.720Z,97522.61
2024-03-03T13:19:55.528Z,97520.98
2024-03-03T13:22:25.014Z,97521.90
2024-03-03T13:25:03.157Z,97515.02
2024-03-03T13:27:32.907Z,97519.73
2024-03-03T13:30:08.539Z,97517.03
2024-03-03T13:32:37.287Z,97514.05
2024-03-03T13:35:06.057Z,97519.21
2024-03-03T13:37:34.616Z,97519.07
2024-03-03T13:40:03.986Z,97519.05
2024-03-03T13:42:32.602Z,97516.08
2024-03-03T13:45:02.808Z,97515.90
2024-03-03T13:47:31.561Z,97513.34
2024-03-03T13:50:00.505Z,97514.19
2024-03-03T13:52:29.030Z,97516.63
2024-03-03T13:54:57.776Z,97510.67
2024-03-03T13:57:26.372Z,97512.48
2024-03-03T13:59:54.876Z,97512.11
2024-03-03T14:02:23.403Z,97509.64
2024-03-03T14:04:52.117Z,97509.21
2024-03-03T14:07:20.447Z,97511.89
2024-03-03T14:09:49.828Z,97510.20
2024-03-03T14:12:18.358Z,97509.85
2024-03-03T14:14:47.045Z,97512.34
2024-03-03T14:17:16.843Z,97512.70
2024-03-03T14:19:45.621Z,97508.89
2024-03-03T14:22:14.040Z,97509.34
2024-03-03T14:24:43.763Z,97508.52
2024-03-03T14:27:12.397Z,97508.56
2024-03-03T14:29:42.161Z,97508.19
2024-03-03T14:32:10.822Z,97505.27
2024-03-03T14:34:39.153Z,97508.25
2024-03-03T14:37:09.039Z,97507.22
2024-03-03T14:39:37.444Z,97500.96
2024-03-03T14:42:05.984Z,97501.54
2024-03-03T14:44:34.316Z,97499.58
2024-03-03T14:47:05.331Z,97500.36
2024-03-03T14:49:35.938Z,97501.17
2024-03-03T14:52:06.329Z,97499.14
2024-03-03T14:54:34.518Z,97496.27
2024-03-03T14:57:03.142Z,97495.14
2024-03-03T14:59:31.611Z,97491.92
2024-03-03T15:02:00.201Z,97490.97
2024-03-03T15:04:29.065Z,97494.23
2024-03-03T15:06:58.438Z,97493.66
2024-03-03T15:09:27.101Z,97493.43
2024-03-03T15:11:55.406Z,97492.66
2024-03-03T15:14:23.835Z,97495.09
2024-03-03T15:16:52.443Z,97497.54
2024-03-03T15:19:20.894Z,97493.63
2024-03-03T15:21:49.342Z,97492.21
2024-03-03T15:24:19.542Z,97492.83
2024-03-03T15:26:47.844Z,97490.21
2024-03-03T15:29:15.986Z,97491.34
2024-03-03T15:31:44.632Z,97492.02
2024-03-03T15:34:13.010Z,97493.44
2024-03-03T15:36:43.878Z,97494.65
2024-03-03T15:39:14.069Z,97498.11
2024-03-03T15:41:42.382Z,97492.87
2024-03-03T15:44:10.657Z,97490.72
2024-03-03T15:46:38.866Z,97487.83
2024-03-03T15:49:07.799Z,97485.02
2024-03-03T15:51:39.734Z,97487.20
2024-03-03T15:54:08.254Z,97485.48
2024-03-03T15:56:36.785Z,97484.27
2024-03-03T15:59:05.493Z,97486.45
2024-03-03T16:01:34.360Z,97488.14
2024-03-03T16:04:03.745Z,97486.98
2024-03-03T16:06:33.240Z,97486.59
2024-03-03T16:09:04.368Z,97488.05
2024-03-03T16:11:33.041Z,97485.92
2024-03-03T16:14:01.555Z,97486.74
2024-03-03T16:16:31.214Z,97485.22
2024-03-03T16:19:01.063Z,97483.27
2024-03-03T16:21:29.613Z,97486.73
2024-03-03T16:23:58.360Z,97491.42
2024-03-03T16:26:26.812Z,97491.06
2024-03-03T16:28:55.198Z,97493.69
2024-03-03T16:31:23.805Z,97496.36
2024-03-03T16:33:52.527Z,97495.66
2024-03-03T16:36:21.597Z,97499.34
2024-03-03T16:38:52.762Z,97496.54
2024-03-03T16:41:23.046Z,97501.38
2024-03-03T16:43:51.936Z,97501.06
2024-03-03T16:46:22.239Z,97497.94
2024-03-03T16:48:51.336Z,97503.08
2024-03-03T16:51:21.317Z,97497.14
2024-03-03T16:53:49.925Z,97504.20
2024-03-03T16:56:18.650Z,97503.15
2024-03-03T16:58:48.236Z,97502.39
2024-03-03T17:01:17.567Z,97506.20
2024-03-03T17:03:47.563Z,97502.48
2024-03-03T17:06:17.191Z,97503.78
2024-03-03T17:08:46.006Z,97503.48
2024-03-03T17:11:15.085Z,97507.27
2024-03-03T17:13:43.581Z,97509.30
2024-03-03T17:16:13.718Z,97508.17
2024-03-03T17:18:42.788Z,97511.60
2024-03-03T17:21:11.190Z,97515.64
2024-03-03T17:23:40.108Z,97515.17
2024-03-03T17:26:09.040Z,97518.69
2024-03-03T17:28:38.737Z,97517.67
2024-03-03T17:31:08.692Z,97518.59
2024-03-03T17:33:37.466Z,97518.86
2024-03-03T17:36:06.734Z,97516.20
2024-03-03T17:38:35.397Z,97518.69
2024-03-03T17:41:05.298Z,97522.11
2024-03-03T17:43:34.217Z,97528.80
2024-03-03T17:46:03.073Z,97525.88
2024-03-03T17:48:32.749Z,97525.17
2024-03-03T17:51:01.489Z,97525.59
2024-03-03T17:53:30.562Z,97524.14
2024-03-03T17:55:59.330Z,97525.81
2024-03-03T17:58:28.300Z,97528.52
2024-03-03T18:00:57.769Z,97525.92
2024-03-03T18:03:26.785Z,97526.45
2024-03-03T18:05:55.356Z,97524.53
2024-03-03T18:08:24.554Z,97529.84
2024-03-03T18:10:53.847Z,97532.80
2024-03-03T18:13:23.034Z,97529.67
2024-03-03T18:15:53.259Z,97531.08
2024-03-03T18:18:25.935Z,97532.45
2024-03-03T18:20:54.843Z,97533.83
2024-03-03T18:23:24.028Z,97537.66
2024-03-03T18:25:52.649Z,97533.02
2024-03-03T18:28:22.525Z,97531.99
2024-03-03T18:30:52.252Z,97532.90
2024-03-03T18:33:22.516Z,97539.38
2024-03-03T18:35:51.625Z,97540.95
2024-03-03T18:38:20.625Z,97539.38
2024-03-03T18:40:49.417Z,97538.52
2024-03-03T18:43:18.726Z,97538.41
2024-03-03T18:45:47.163Z,97539.61
2024-03-03T18:48:16.003Z,97542.31
2024-03-03T18:50:46.728Z,97547.71
2024-03-03T18:53:17.422Z,97549.38
2024-03-03T18:55:46.390Z,97549.60
2024-03-03T18:58:15.820Z,97552.71
2024-03-03T19:00:46.990Z,97548.38
2024-03-03T19:03:17.480Z,97548.32
2024-03-03T19:05:47.796Z,97550.73
2024-03-03T19:08:16.635Z,97546.34
2024-03-03T19:10:46.924Z,97543.86
2024-03-03T19:13:18.010Z,97539.59
2024-03-03T19:15:47.194Z,97540.12
2024-03-03T19:18:17.746Z,97534.67
2024-03-03T19:20:49.240Z,97539.20
2024-03-03T19:23:18.276Z,97539.35
2024-03-03T19:25:46.821Z,97539.67
2024-03-03T19:28:15.966Z,97541.93
2024-03-03T19:30:45.124Z,97543.14
2024-03-03T19:33:14.456Z,97543.92
2024-03-03T19:35:43.398Z,97542.85
2024-03-03T19:38:12.134Z,97539.05
2024-03-03T19:40:41.189Z,97541.77
2024-03-03T19:43:09.982Z,97545.05
2024-03-03T19:45:38.364Z,97547.29
2024-03-03T19:48:07.576Z,97543.90
2024-03-03T19:50:37.339Z,97548.64
2024-03-03T19:53:06.490Z,97545.60
2024-03-03T19:55:35.640Z,97547.23
2024-03-03T19:58:04.781Z,97546.48
2024-03-03T20:00:33.946Z,97550.20
2024-03-03T20:03:07.133Z,97552.91
2024-03-03T20:05:36.337Z,97555.69
2024-03-03T20:08:06.488Z,97556.27
2024-03-03T20:10:35.947Z,97558.19
2024-03-03T20:13:05.742Z,97556.80
2024-03-03T20:15:35.413Z,97559.30
2024-03-03T20:18:04.715Z,97554.45
2024-03-03T20:20:33.556Z,97553.19
2024-03-03T20:23:02.536Z,97554.09
2024-03-03T20:25:31.614Z,97557.31
2024-03-03T20:28:00.495Z,97556.50
2024-03-03T20:30:29.803Z,97559.70
2024-03-03T20:32:59.274Z,97560.03
2024-03-03T20:35:28.090Z,97557.91
2024-03-03T20:37:57.608Z,97564.20
2024-03-03T20:40:27.905Z,97566.28
2024-03-03T20:42:56.948Z,97565.21
2024-03-03T20:45:25.924Z,97563.48
2024-03-03T20:47:55.468Z,97563.51
2024-03-03T20:50:24.638Z,97559.46
2024-03-03T20:52:53.604Z,97564.02
2024-03-03T20:55:22.190Z,97562.76
2024-03-03T20:57:50.912Z,97566.98
2024-03-03T21:00:21.006Z,97569.17
2024-03-03T21:02:49.987Z,97567.91
2024-03-03T21:05:18.558Z,97568.73
2024-03-03T21:07:47.346Z,97572.34
2024-03-03T21:10:16.496Z,97574.48
2024-03-03T21:12:45.475Z,97573.45
2024-03-03T21:15:14.281Z,97569.04
2024-03-03T21:17:43.457Z,97575.13
2024-03-03T21:20:14.681Z,97573.77
2024-03-03T21:22:44.811Z,97571.58
2024-03-03T21:25:17.375Z,97570.15
2024-03-03T21:27:52.481Z,97571.86
2024-03-03T21:30:23.802Z,97570.31
2024-03-03T21:32:53.558Z,97572.86
2024-03-03T21:35:21.952Z,97571.35
2024-03-03T21:37:50.528Z,97572.40
2024-03-03T21:40:19.264Z,97570.38
2024-03-03T21:42:48.199Z,97571.15
2024-03-03T21:45:17.303Z,97576.48
2024-03-03T21:47:45.762Z,97573.70
2024-03-03T21:50:17.593Z,97574.66
2024-03-03T21:52:46.597Z,97578.63
2024-03-03T21:55:15.902Z,97577.64
2024-03-03T21:57:45.448Z,97578.14
2024-03-03T22:00:15.904Z,97578.63
2024-03-03T22:02:45.248Z,97578.51
2024-03-03T22:05:15.048Z,97575.00
2024-03-03T22:07:44.087Z,97580.67
2024-03-03T22:10:13.901Z,97578.89
2024-03-03T22:12:42.787Z,97579.19
2024-03-03T22:15:13.037Z,97581.17
2024-03-03T22:17:41.801Z,97579.61
2024-03-03T22:20:12.140Z,97583.16
2024-03-03T22:22:41.409Z,97585.70
2024-03-03T22:25:10.752Z,97588.67
2024-03-03T22:27:39.865Z,97587.92
2024-03-03T22:30:09.543Z,97588.65
2024-03-03T22:32:38.071Z,97588.48
2024-03-03T22:35:07.233Z,97586.11
2024-03-03T22:37:38.404Z,97584.40
2024-03-03T22:40:12.160Z,97584.22
2024-03-03T22:42:41.006Z,97588.17
2024-03-03T22:45:09.752Z,97583.46
2024-03-03T22:47:38.916Z,97585.20
2024-03-03T22:50:09.014Z,97582.06
2024-03-03T22:52:37.880Z,97581.98
2024-03-03T22:55:07.202Z,97583.41
2024-03-03T22:57:36.262Z,97583.42
2024-03-03T23:00:06.688Z,97585.48
2024-03-03T23:02:35.973Z,97585.27
2024-03-03T23:05:07.125Z,97586.05
2024-03-03T23:07:36.205Z,97585.61
2024-03-03T23:10:06.191Z,97583.75
2024-03-03T23:12:35.486Z,97586.98
2024-03-03T23:15:04.884Z,97589.88
2024-03-03T23:17:34.047Z,97589.57
2024-03-03T23:20:03.055Z,97593.59
2024-03-03T23:22:32.253Z,97593.40
2024-03-03T23:25:01.487Z,97593.92
2024-03-03T23:27:30.433Z,97592.55
2024-03-03T23:29:59.101Z,97592.95
2024-03-03T23:32:27.812Z,97594.56
2024-03-03T23:34:56.297Z,97592.91
2024-03-03T23:37:24.806Z,97592.73
2024-03-03T23:39:53.253Z,97590.58
2024-03-03T23:42:22.114Z,97589.71
2024-03-03T23:44:51.011Z,97588.62
2024-03-03T23:47:19.685Z,97586.41
2024-03-03T23:49:48.544Z,97585.73
2024-03-03T23:52:17.521Z,97585.98
2024-03-03T23:54:46.540Z,97585.88
2024-03-03T23:57:15.278Z,97587.78
2024-03-03T23:59:44.054Z,97590.00
